Time;durP1;ratioP1;P1;durP2;ratioP2;P2;SDS_P1;SDS_P2;PMS_P1;PMS_P2;Temp;Humidity;BMP_temperature;BMP_pressure;BME280_temperature;BME280_humidity;BME280_pressure;Samples;Min_cycle;Max_cycle;Signal;HPM_P1;HPM_P2
2023/03/26 00:01:15;;;;;;;1.30;0.70;;;;;;;-128.00;-1.00;-1.00;97898;295;1003937;-30
2023/03/26 00:03:43;;;;;;;1.90;1.00;;;;;;;-128.00;-1.00;-1.00;98130;295;1003612;-29
2023/03/26 00:06:11;;;;;;;0.80;0.50;;;;;;;-128.00;-1.00;-1.00;97959;295;1002939;-37
2023/03/26 00:08:38;;;;;;;2.30;1.30;;;;;;;-128.00;-1.00;-1.00;97909;295;1003062;-30
2023/03/26 00:11:05;;;;;;;2.60;1.40;;;;;;;-128.00;-1.00;-1.00;97851;287;1002500;-29
2023/03/26 00:13:32;;;;;;;5.20;1.40;;;;;;;-128.00;-1.00;-1.00;97847;295;1003553;-32
2023/03/26 00:15:58;;;;;;;3.00;1.40;;;;;;;-128.00;-1.00;-1.00;97930;295;1003519;-29
2023/03/26 00:18:29;;;;;;;1.90;0.70;;;;;;;-128.00;-1.00;-1.00;97861;295;1004867;-32
2023/03/26 00:20:56;;;;;;;2.40;1.50;;;;;;;-128.00;-1.00;-1.00;98077;295;1002873;-32
2023/03/26 00:23:22;;;;;;;3.00;1.40;;;;;;;-128.00;-1.00;-1.00;97888;295;1003593;-32
2023/03/26 00:25:49;;;;;;;2.00;0.90;;;;;;;-128.00;-1.00;-1.00;97965;295;1004151;-29
2023/03/26 00:28:16;;;;;;;2.70;1.70;;;;;;;-128.00;-1.00;-1.00;97946;295;1005089;-33
2023/03/26 00:30:42;;;;;;;1.80;1.20;;;;;;;-128.00;-1.00;-1.00;97975;295;1003539;-30
2023/03/26 00:33:10;;;;;;;2.90;1.70;;;;;;;-128.00;-1.00;-1.00;97967;295;1003457;-29
2023/03/26 00:35:37;;;;;;;2.10;0.90;;;;;;;-128.00;-1.00;-1.00;97933;295;1002919;-32
2023/03/26 00:38:03;;;;;;;2.60;1.10;;;;;;;-128.00;-1.00;-1.00;97915;295;1002714;-33
2023/03/26 00:40:28;;;;;;;3.60;2.00;;;;;;;-128.00;-1.00;-1.00;98119;295;1005163;-37
2023/03/26 00:42:54;;;;;;;5.40;1.90;;;;;;;-128.00;-1.00;-1.00;97996;295;1003319;-30
2023/03/26 00:45:21;;;;;;;2.70;0.90;;;;;;;-128.00;-1.00;-1.00;97889;295;1003380;-30
2023/03/26 00:47:46;;;;;;;4.30;1.80;;;;;;;-128.00;-1.00;-1.00;97885;286;1005174;-33
2023/03/26 00:50:15;;;;;;;1.80;1.40;;;;;;;-128.00;-1.00;-1.00;98062;295;1004299;-29
2023/03/26 00:52:42;;;;;;;7.20;1.40;;;;;;;-128.00;-1.00;-1.00;97819;295;1003460;-27
2023/03/26 00:55:09;;;;;;;2.30;1.30;;;;;;;-128.00;-1.00;-1.00;97901;286;1003790;-28
2023/03/26 00:57:36;;;;;;;2.40;2.10;;;;;;;-128.00;-1.00;-1.00;97891;295;1004065;-34
2023/03/26 01:00:15;;;;;;;2.60;1.50;;;;;;;-128.00;-1.00;-1.00;97879;295;1002542;-31
2023/03/26 01:02:43;;;;;;;2.00;1.20;;;;;;;-128.00;-1.00;-1.00;97897;295;1003526;-29
2023/03/26 01:05:33;;;;;;;0.90;0.70;;;;;;;-128.00;-1.00;-1.00;97951;295;1002917;-30
2023/03/26 01:08:15;;;;;;;3.40;1.80;;;;;;;-128.00;-1.00;-1.00;97871;295;1003558;-33
2023/03/26 01:10:41;;;;;;;3.30;1.30;;;;;;;-128.00;-1.00;-1.00;98098;295;1002981;-30
2023/03/26 01:13:07;;;;;;;2.30;1.70;;;;;;;-128.00;-1.00;-1.00;97808;295;1003794;-34
2023/03/26 01:15:36;;;;;;;1.20;0.70;;;;;;;-128.00;-1.00;-1.00;98000;295;1005069;-30
2023/03/26 01:18:08;;;;;;;2.30;1.30;;;;;;;-128.00;-1.00;-1.00;97971;295;1003051;-33
2023/03/26 01:20:37;;;;;;;1.70;1.00;;;;;;;-128.00;-1.00;-1.00;97850;295;1003146;-28
2023/03/26 01:23:04;;;;;;;4.90;1.50;;;;;;;-128.00;-1.00;-1.00;97895;286;1003146;-32
2023/03/26 01:25:32;;;;;;;8.40;1.40;;;;;;;-128.00;-1.00;-1.00;97972;295;1003331;-33
2023/03/26 01:27:59;;;;;;;2.80;1.40;;;;;;;-128.00;-1.00;-1.00;97987;295;1003282;-34
2023/03/26 01:30:41;;;;;;;4.40;1.20;;;;;;;-128.00;-1.00;-1.00;97834;295;1005541;-29
2023/03/26 01:33:32;;;;;;;2.30;0.90;;;;;;;-128.00;-1.00;-1.00;98042;295;1004124;-33
2023/03/26 01:36:01;;;;;;;8.30;1.20;;;;;;;-128.00;-1.00;-1.00;97991;295;1003037;-29
2023/03/26 01:38:47;;;;;;;2.50;1.30;;;;;;;-128.00;-1.00;-1.00;98037;295;1003889;-29
2023/03/26 01:41:26;;;;;;;3.20;0.70;;;;;;;-128.00;-1.00;-1.00;97868;294;1003865;-34
2023/03/26 01:44:02;;;;;;;1.70;0.60;;;;;;;-128.00;-1.00;-1.00;97844;295;1003077;-30
2023/03/26 01:46:29;;;;;;;5.30;1.10;;;;;;;-128.00;-1.00;-1.00;97748;295;1004008;-29
2023/03/26 01:48:55;;;;;;;1.70;1.10;;;;;;;-128.00;-1.00;-1.00;97897;295;1003345;-29
2023/03/26 01:51:32;;;;;;;4.20;1.20;;;;;;;-128.00;-1.00;-1.00;97927;295;1003412;-33
2023/03/26 01:53:59;;;;;;;2.70;1.40;;;;;;;-128.00;-1.00;-1.00;97898;283;1003459;-33
2023/03/26 01:56:44;;;;;;;1.90;1.20;;;;;;;-128.00;-1.00;-1.00;97951;295;1003549;-30
2023/03/26 01:59:30;;;;;;;1.40;1.00;;;;;;;-128.00;-1.00;-1.00;97980;295;1003436;-32
2023/03/26 02:02:12;;;;;;;1.20;0.60;;;;;;;-128.00;-1.00;-1.00;97977;283;1003495;-29
2023/03/26 02:04:58;;;;;;;2.20;1.30;;;;;;;-128.00;-1.00;-1.00;97927;295;1002949;-29
2023/03/26 02:07:27;;;;;;;2.00;0.80;;;;;;;-128.00;-1.00;-1.00;97915;295;1003146;-32
2023/03/26 02:09:56;;;;;;;1.20;0.70;;;;;;;-128.00;-1.00;-1.00;97884;295;1003745;-32
2023/03/26 02:12:22;;;;;;;2.90;0.90;;;;;;;-128.00;-1.00;-1.00;97946;295;1003359;-30
2023/03/26 02:14:48;;;;;;;1.80;0.80;;;;;;;-128.00;-1.00;-1.00;97742;295;1003872;-29
2023/03/26 02:17:13;;;;;;;2.70;0.50;;;;;;;-128.00;-1.00;-1.00;97812;295;1003071;-29
2023/03/26 02:19:42;;;;;;;2.00;1.00;;;;;;;-128.00;-1.00;-1.00;97865;295;1003169;-32
2023/03/26 02:22:10;;;;;;;1.90;0.70;;;;;;;-128.00;-1.00;-1.00;97869;295;1003565;-28
2023/03/26 02:24:37;;;;;;;1.70;0.80;;;;;;;-128.00;-1.00;-1.00;97995;295;1003563;-33
2023/03/26 02:27:06;;;;;;;0.40;0.30;;;;;;;-128.00;-1.00;-1.00;97972;295;1003488;-29
2023/03/26 02:29:36;;;;;;;1.30;0.70;;;;;;;-128.00;-1.00;-1.00;97870;295;1003496;-31
2023/03/26 02:32:04;;;;;;;1.50;0.80;;;;;;;-128.00;-1.00;-1.00;97911;295;1003000;-30
2023/03/26 02:34:30;;;;;;;1.60;0.80;;;;;;;-128.00;-1.00;-1.00;97967;295;1004339;-29
2023/03/26 02:36:56;;;;;;;1.50;0.60;;;;;;;-128.00;-1.00;-1.00;97925;295;1003091;-29
2023/03/26 02:39:22;;;;;;;1.70;0.90;;;;;;;-128.00;-1.00;-1.00;97947;295;1003583;-33
2023/03/26 02:41:48;;;;;;;1.10;0.60;;;;;;;-128.00;-1.00;-1.00;97946;297;1003593;-35
2023/03/26 02:44:14;;;;;;;2.60;0.70;;;;;;;-128.00;-1.00;-1.00;97882;295;1002993;-29
2023/03/26 02:46:40;;;;;;;1.60;0.60;;;;;;;-128.00;-1.00;-1.00;97981;295;1002925;-29
2023/03/26 02:49:05;;;;;;;3.10;1.90;;;;;;;-128.00;-1.00;-1.00;97883;295;1004122;-33
2023/03/26 02:51:33;;;;;;;1.50;0.90;;;;;;;-128.00;-1.00;-1.00;98022;295;1003100;-29
2023/03/26 02:54:00;;;;;;;2.50;0.90;;;;;;;-128.00;-1.00;-1.00;97960;295;1003606;-33
2023/03/26 02:56:27;;;;;;;2.70;0.90;;;;;;;-128.00;-1.00;-1.00;97802;295;1002471;-30
2023/03/26 02:58:53;;;;;;;1.30;0.80;;;;;;;-128.00;-1.00;-1.00;97996;295;1004377;-29
2023/03/26 03:01:19;;;;;;;3.60;1.00;;;;;;;-128.00;-1.00;-1.00;98051;295;1004526;-32
2023/03/26 03:03:47;;;;;;;2.30;0.90;;;;;;;-128.00;-1.00;-1.00;97862;295;1003672;-32
2023/03/26 03:06:13;;;;;;;3.20;1.40;;;;;;;-128.00;-1.00;-1.00;97906;295;1004864;-34
2023/03/26 03:08:40;;;;;;;3.20;0.90;;;;;;;-128.00;-1.00;-1.00;97814;295;1003658;-31
2023/03/26 03:11:14;;;;;;;1.70;1.00;;;;;;;-128.00;-1.00;-1.00;97790;295;1003276;-28
2023/03/26 03:13:40;;;;;;;1.10;0.70;;;;;;;-128.00;-1.00;-1.00;97830;295;1004177;-35
2023/03/26 03:16:06;;;;;;;1.00;0.80;;;;;;;-128.00;-1.00;-1.00;97955;295;1004001;-34
2023/03/26 03:18:32;;;;;;;1.80;1.10;;;;;;;-128.00;-1.00;-1.00;97960;295;1003058;-32
2023/03/26 03:20:57;;;;;;;0.80;0.60;;;;;;;-128.00;-1.00;-1.00;97968;295;1003594;-28
2023/03/26 03:23:23;;;;;;;2.50;0.70;;;;;;;-128.00;-1.00;-1.00;97910;295;1003632;-30
2023/03/26 03:25:51;;;;;;;1.90;0.60;;;;;;;-128.00;-1.00;-1.00;97888;295;1003344;-29
2023/03/26 03:28:18;;;;;;;2.40;0.90;;;;;;;-128.00;-1.00;-1.00;97945;295;1002995;-30
2023/03/26 03:30:43;;;;;;;1.80;0.60;;;;;;;-128.00;-1.00;-1.00;98006;295;1005818;-32
2023/03/26 03:33:09;;;;;;;2.30;0.60;;;;;;;-128.00;-1.00;-1.00;97798;296;1003248;-33
2023/03/26 03:35:37;;;;;;;1.50;0.70;;;;;;;-128.00;-1.00;-1.00;97856;295;1003462;-31
2023/03/26 03:38:02;;;;;;;1.10;0.60;;;;;;;-128.00;-1.00;-1.00;97900;295;1004341;-34
2023/03/26 03:40:28;;;;;;;0.70;0.50;;;;;;;-128.00;-1.00;-1.00;98007;295;1003341;-34
2023/03/26 03:42:54;;;;;;;1.30;0.70;;;;;;;-128.00;-1.00;-1.00;97927;295;1003826;-29
2023/03/26 03:45:20;;;;;;;6.00;1.40;;;;;;;-128.00;-1.00;-1.00;97858;295;1002916;-29
2023/03/26 03:47:45;;;;;;;1.70;0.90;;;;;;;-128.00;-1.00;-1.00;97879;295;1004369;-33
2023/03/26 03:50:11;;;;;;;3.30;0.60;;;;;;;-128.00;-1.00;-1.00;97861;296;1005053;-33
2023/03/26 03:52:37;;;;;;;7.90;1.40;;;;;;;-128.00;-1.00;-1.00;95957;295;3002547;-29
2023/03/26 03:55:03;;;;;;;2.90;0.90;;;;;;;-128.00;-1.00;-1.00;89248;295;7503836;-29
2023/03/26 03:57:30;;;;;;;1.40;0.80;;;;;;;-128.00;-1.00;-1.00;97958;295;1004057;-30
2023/03/26 03:59:57;;;;;;;1.90;0.80;;;;;;;-128.00;-1.00;-1.00;97837;295;1003841;-31
2023/03/26 04:02:33;;;;;;;1.90;0.80;;;;;;;-128.00;-1.00;-1.00;95776;295;3002356;-34
2023/03/26 04:04:59;;;;;;;2.60;0.90;;;;;;;-128.00;-1.00;-1.00;95908;295;3853776;-36
2023/03/26 04:07:25;;;;;;;2.80;0.70;;;;;;;-128.00;-1.00;-1.00;97972;295;1003663;-28
2023/03/26 04:09:51;;;;;;;2.00;0.90;;;;;;;-128.00;-1.00;-1.00;67641;295;7503862;-30
2023/03/26 04:12:17;;;;;;;2.00;0.90;;;;;;;-128.00;-1.00;-1.00;32073;295;7504118;-34
2023/03/26 04:14:43;;;;;;;3.00;0.70;;;;;;;-128.00;-1.00;-1.00;18874;295;7504952;-32
2023/03/26 04:17:12;;;;;;;2.00;0.90;;;;;;;-128.00;-1.00;-1.00;18487;287;7504875;-33
2023/03/26 04:19:39;;;;;;;1.50;0.50;;;;;;;-128.00;-1.00;-1.00;18490;295;7505099;-34
2023/03/26 04:22:05;;;;;;;2.30;1.00;;;;;;;-128.00;-1.00;-1.00;18474;295;7504261;-33
2023/03/26 04:24:32;;;;;;;9.50;2.70;;;;;;;-128.00;-1.00;-1.00;18488;295;7504918;-30
2023/03/26 04:26:59;;;;;;;2.10;0.80;;;;;;;-128.00;-1.00;-1.00;18477;295;7504333;-30
2023/03/26 04:29:26;;;;;;;1.40;1.00;;;;;;;-128.00;-1.00;-1.00;18495;295;7504657;-33
2023/03/26 04:31:57;;;;;;;6.00;0.60;;;;;;;-128.00;-1.00;-1.00;18511;318;7504460;-33
2023/03/26 04:34:23;;;;;;;2.20;0.80;;;;;;;-128.00;-1.00;-1.00;18487;295;7504161;-34
2023/03/26 05:14:55;;;;;;;2.60;0.80;;;;;;;-101.11;17.07;19640.70;98332;297;1544366;-29
2023/03/26 05:17:22;;;;;;;2.00;1.00;;;;;;;-128.00;-1.00;-1.00;97355;297;1004960;-29
2023/03/26 05:19:48;;;;;;;1.50;0.70;;;;;;;-128.00;-1.00;-1.00;97822;297;1004807;-30
2023/03/26 05:22:14;;;;;;;0.90;0.60;;;;;;;-128.00;-1.00;-1.00;97800;297;1003730;-31
2023/03/26 05:24:39;;;;;;;2.00;0.70;;;;;;;-128.00;-1.00;-1.00;97924;297;1003253;-37
2023/03/26 05:27:05;;;;;;;1.30;0.70;;;;;;;-128.00;-1.00;-1.00;97889;297;1003050;-33
2023/03/26 05:29:31;;;;;;;1.40;0.70;;;;;;;-128.00;-1.00;-1.00;97789;298;1003055;-30
2023/03/26 05:31:56;;;;;;;1.00;0.60;;;;;;;-128.00;-1.00;-1.00;97779;297;1003335;-30
2023/03/26 05:34:25;;;;;;;2.30;0.60;;;;;;;-128.00;-1.00;-1.00;97874;297;1003389;-33
2023/03/26 05:36:51;;;;;;;2.10;0.60;;;;;;;-128.00;-1.00;-1.00;97893;297;1003159;-30
2023/03/26 05:39:16;;;;;;;1.90;1.00;;;;;;;-128.00;-1.00;-1.00;97876;297;1003980;-31
2023/03/26 05:41:42;;;;;;;1.40;0.60;;;;;;;-128.00;-1.00;-1.00;97865;297;1004293;-30
2023/03/26 05:44:08;;;;;;;1.70;0.70;;;;;;;-128.00;-1.00;-1.00;97781;297;1002636;-33
2023/03/26 05:46:34;;;;;;;10.30;0.70;;;;;;;-128.00;-1.00;-1.00;97758;297;1003546;-33
2023/03/26 05:48:59;;;;;;;2.00;0.90;;;;;;;-128.00;-1.00;-1.00;97841;297;1004154;-34
2023/03/26 05:51:25;;;;;;;5.60;1.10;;;;;;;-128.00;-1.00;-1.00;97814;297;1003304;-29
2023/03/26 05:53:50;;;;;;;1.00;0.50;;;;;;;-128.00;-1.00;-1.00;97818;297;1003560;-33
2023/03/26 05:56:16;;;;;;;3.90;0.60;;;;;;;-128.00;-1.00;-1.00;97879;297;1003955;-34
2023/03/26 05:58:42;;;;;;;2.40;0.90;;;;;;;-128.00;-1.00;-1.00;97806;297;1003328;-30
2023/03/26 06:01:09;;;;;;;2.30;1.20;;;;;;;-128.00;-1.00;-1.00;97818;297;1003724;-30
2023/03/26 06:03:37;;;;;;;3.90;0.80;;;;;;;-128.00;-1.00;-1.00;97832;297;1002976;-30
2023/03/26 06:06:05;;;;;;;1.80;0.50;;;;;;;-128.00;-1.00;-1.00;97747;297;1004913;-29
2023/03/26 06:08:31;;;;;;;1.80;0.70;;;;;;;-128.00;-1.00;-1.00;97823;297;1002935;-34
2023/03/26 06:10:58;;;;;;;5.90;1.10;;;;;;;-128.00;-1.00;-1.00;97758;297;1003542;-31
2023/03/26 06:13:24;;;;;;;1.00;0.20;;;;;;;-128.00;-1.00;-1.00;97809;297;1003881;-34
2023/03/26 06:15:50;;;;;;;5.00;0.60;;;;;;;-128.00;-1.00;-1.00;97762;297;1004190;-30
2023/03/26 06:18:16;;;;;;;3.20;0.90;;;;;;;-128.00;-1.00;-1.00;97795;297;1003191;-29
2023/03/26 06:20:42;;;;;;;1.20;0.40;;;;;;;-128.00;-1.00;-1.00;97674;297;1004069;-33
2023/03/26 06:23:08;;;;;;;1.60;1.00;;;;;;;-128.00;-1.00;-1.00;97857;297;1003266;-30
2023/03/26 06:25:33;;;;;;;0.50;0.40;;;;;;;-128.00;-1.00;-1.00;97779;297;1003334;-31
2023/03/26 06:27:59;;;;;;;0.70;0.40;;;;;;;-128.00;-1.00;-1.00;97773;297;1003725;-36
2023/03/26 06:30:25;;;;;;;1.00;0.30;;;;;;;-128.00;-1.00;-1.00;97792;297;1002405;-30
2023/03/26 06:32:50;;;;;;;2.40;0.80;;;;;;;-128.00;-1.00;-1.00;97770;297;1003749;-30
2023/03/26 06:35:16;;;;;;;1.20;0.50;;;;;;;-128.00;-1.00;-1.00;97873;297;1003869;-34
2023/03/26 06:37:42;;;;;;;0.50;0.40;;;;;;;-128.00;-1.00;-1.00;97844;297;1004348;-33
2023/03/26 06:40:08;;;;;;;0.90;0.50;;;;;;;-128.00;-1.00;-1.00;97754;297;1003264;-30
2023/03/26 06:42:34;;;;;;;2.50;1.20;;;;;;;-128.00;-1.00;-1.00;97843;293;1003197;-34
2023/03/26 06:44:59;;;;;;;1.20;0.40;;;;;;;-128.00;-1.00;-1.00;97794;297;1003300;-30
2023/03/26 06:47:25;;;;;;;1.00;0.60;;;;;;;-128.00;-1.00;-1.00;97747;297;1003038;-34
2023/03/26 06:49:51;;;;;;;7.00;0.90;;;;;;;-128.00;-1.00;-1.00;97876;297;1003034;-34
2023/03/26 06:52:16;;;;;;;3.00;0.60;;;;;;;-128.00;-1.00;-1.00;97778;297;1003238;-34
2023/03/26 06:54:42;;;;;;;2.00;0.90;;;;;;;-128.00;-1.00;-1.00;97846;297;1003200;-28
2023/03/26 06:57:07;;;;;;;0.40;0.30;;;;;;;-128.00;-1.00;-1.00;97830;297;1004083;-32
2023/03/26 06:59:33;;;;;;;0.80;0.50;;;;;;;-128.00;-1.00;-1.00;97822;297;1002695;-34
2023/03/26 07:01:59;;;;;;;2.00;0.50;;;;;;;-128.00;-1.00;-1.00;97848;297;1004674;-33
2023/03/26 07:04:25;;;;;;;0.50;0.40;;;;;;;-128.00;-1.00;-1.00;97859;297;1003459;-30
2023/03/26 07:06:52;;;;;;;0.20;0.20;;;;;;;-128.00;-1.00;-1.00;97798;297;1003037;-33
2023/03/26 07:09:17;;;;;;;1.40;0.30;;;;;;;-128.00;-1.00;-1.00;97751;297;1003419;-33
2023/03/26 07:11:43;;;;;;;5.40;0.80;;;;;;;-128.00;-1.00;-1.00;97771;297;1002984;-29
2023/03/26 07:14:09;;;;;;;0.70;0.30;;;;;;;-128.00;-1.00;-1.00;97768;297;1003566;-29
2023/03/26 07:16:34;;;;;;;1.10;0.70;;;;;;;-128.00;-1.00;-1.00;97844;297;1004231;-30
2023/03/26 07:19:00;;;;;;;5.30;1.00;;;;;;;-128.00;-1.00;-1.00;97756;298;1003262;-30
2023/03/26 07:21:26;;;;;;;1.20;0.60;;;;;;;-128.00;-1.00;-1.00;97775;297;1003758;-35
2023/03/26 07:23:52;;;;;;;2.00;0.80;;;;;;;-128.00;-1.00;-1.00;97839;297;1003037;-31
2023/03/26 07:26:33;;;;;;;2.80;0.80;;;;;;;-128.00;-1.00;-1.00;97675;298;1003058;-31
2023/03/26 07:29:11;;;;;;;2.30;0.90;;;;;;;-128.00;-1.00;-1.00;97774;297;1002940;-33
2023/03/26 07:31:49;;;;;;;1.60;0.50;;;;;;;-128.00;-1.00;-1.00;97780;298;1004494;-34
2023/03/26 07:34:32;;;;;;;0.80;0.50;;;;;;;-128.00;-1.00;-1.00;97835;297;1004033;-36
2023/03/26 07:37:04;;;;;;;1.40;0.40;;;;;;;-128.00;-1.00;-1.00;97841;297;1003652;-33
2023/03/26 07:39:45;;;;;;;1.30;0.40;;;;;;;-128.00;-1.00;-1.00;58801;286;7504313;-30
2023/03/26 07:42:22;;;;;;;0.40;0.30;;;;;;;-128.00;-1.00;-1.00;39819;297;7504653;-35
2023/03/26 07:44:56;;;;;;;0.40;0.20;;;;;;;-128.00;-1.00;-1.00;20258;322;7504459;-31
2023/03/26 07:47:33;;;;;;;0.70;0.60;;;;;;;-128.00;-1.00;-1.00;18469;338;7504413;-31
2023/03/26 07:49:59;;;;;;;3.20;0.60;;;;;;;-128.00;-1.00;-1.00;18458;297;7505265;-35
2023/03/26 07:52:25;;;;;;;3.50;0.60;;;;;;;-128.00;-1.00;-1.00;18447;338;7506030;-31
2023/03/26 07:54:51;;;;;;;1.50;0.60;;;;;;;-128.00;-1.00;-1.00;18464;343;7504750;-30
2023/03/26 07:57:43;;;;;;;0.90;0.40;;;;;;;-128.00;-1.00;-1.00;18448;297;7506080;-31
2023/03/26 08:00:27;;;;;;;1.60;0.40;;;;;;;-128.00;-1.00;-1.00;18455;322;7504701;-34
2023/03/26 08:03:15;;;;;;;1.80;0.70;;;;;;;-128.00;-1.00;-1.00;18492;298;7504649;-31
2023/03/26 08:05:56;;;;;;;3.50;1.00;;;;;;;-128.00;-1.00;-1.00;18443;297;7505157;-35
2023/03/26 08:08:44;;;;;;;1.10;0.30;;;;;;;-128.00;-1.00;-1.00;18472;349;7504517;-31
2023/03/26 08:11:26;;;;;;;0.40;0.20;;;;;;;-128.00;-1.00;-1.00;18431;339;7504809;-34
2023/03/26 08:14:09;;;;;;;0.30;0.30;;;;;;;-128.00;-1.00;-1.00;18464;297;7504461;-34
2023/03/26 08:16:52;;;;;;;0.20;0.20;;;;;;;-128.00;-1.00;-1.00;18436;301;7504383;-34
2023/03/26 08:19:49;;;;;;;1.80;0.70;;;;;;;-128.00;-1.00;-1.00;18482;350;7507101;-34
2023/03/26 08:22:26;;;;;;;1.00;0.50;;;;;;;-128.00;-1.00;-1.00;18447;297;7504912;-35
2023/03/26 08:25:10;;;;;;;2.20;0.70;;;;;;;-128.00;-1.00;-1.00;18441;297;7505094;-34
2023/03/26 08:27:38;;;;;;;1.80;0.80;;;;;;;-128.00;-1.00;-1.00;18461;297;7504581;-30
2023/03/26 08:30:17;;;;;;;3.90;0.90;;;;;;;-128.00;-1.00;-1.00;18461;297;7506064;-31
2023/03/26 08:32:48;;;;;;;1.00;0.60;;;;;;;-128.00;-1.00;-1.00;18478;301;7506258;-32
2023/03/26 08:35:14;;;;;;;1.20;0.60;;;;;;;-128.00;-1.00;-1.00;18445;297;7504709;-31
2023/03/26 08:37:40;;;;;;;1.80;0.80;;;;;;;-128.00;-1.00;-1.00;18456;299;7505058;-35
2023/03/26 08:40:06;;;;;;;1.90;0.30;;;;;;;-128.00;-1.00;-1.00;18475;297;7504385;-31
2023/03/26 08:42:54;;;;;;;1.30;0.40;;;;;;;-128.00;-1.00;-1.00;18440;309;7505802;-32
2023/03/26 08:45:51;;;;;;;1.70;0.60;;;;;;;-128.00;-1.00;-1.00;18464;297;7504447;-31
2023/03/26 08:48:34;;;;;;;0.40;0.20;;;;;;;-128.00;-1.00;-1.00;18460;297;7505012;-35
2023/03/26 08:51:28;;;;;;;2.90;0.30;;;;;;;-128.00;-1.00;-1.00;18453;297;7506167;-31
2023/03/26 08:54:19;;;;;;;1.10;0.50;;;;;;;-128.00;-1.00;-1.00;18438;298;7505811;-35
2023/03/26 08:57:00;;;;;;;0.30;0.30;;;;;;;-128.00;-1.00;-1.00;18468;317;7506081;-35
2023/03/26 08:59:48;;;;;;;0.20;0.10;;;;;;;-128.00;-1.00;-1.00;18451;297;7504447;-30
2023/03/26 09:02:37;;;;;;;0.90;0.30;;;;;;;-128.00;-1.00;-1.00;18455;297;7504614;-30
2023/03/26 09:05:24;;;;;;;0.80;0.40;;;;;;;-128.00;-1.00;-1.00;18444;350;7504052;-31
2023/03/26 09:08:11;;;;;;;5.60;0.30;;;;;;;-128.00;-1.00;-1.00;18449;298;7505011;-31
2023/03/26 09:10:50;;;;;;;0.80;0.20;;;;;;;-128.00;-1.00;-1.00;18446;309;7504433;-35
2023/03/26 09:13:47;;;;;;;0.10;0.10;;;;;;;-128.00;-1.00;-1.00;18454;290;7505803;-31
2023/03/26 09:16:34;;;;;;;2.30;0.50;;;;;;;-128.00;-1.00;-1.00;18449;310;7504468;-35
2023/03/26 09:19:17;;;;;;;5.80;0.70;;;;;;;-128.00;-1.00;-1.00;18481;297;7504994;-31
2023/03/26 09:22:06;;;;;;;0.10;0.10;;;;;;;-128.00;-1.00;-1.00;18447;297;7504332;-31
2023/03/26 09:24:56;;;;;;;3.00;0.20;;;;;;;-128.00;-1.00;-1.00;18471;286;7504221;-31
2023/03/26 09:27:35;;;;;;;0.80;0.30;;;;;;;-128.00;-1.00;-1.00;18481;297;7504488;-35
2023/03/26 09:30:25;;;;;;;0.60;0.30;;;;;;;-128.00;-1.00;-1.00;18449;298;7505810;-35
2023/03/26 09:33:20;;;;;;;3.80;0.40;;;;;;;-128.00;-1.00;-1.00;18458;297;7506312;-31
2023/03/26 09:35:51;;;;;;;0.60;0.40;;;;;;;-128.00;-1.00;-1.00;18877;313;7504951;-31
2023/03/26 09:38:49;;;;;;;1.10;0.30;;;;;;;-128.00;-1.00;-1.00;33466;297;7506196;-35
2023/03/26 09:41:34;;;;;;;0.70;0.40;;;;;;;-128.00;-1.00;-1.00;97880;297;1003555;-36
2023/03/26 09:44:20;;;;;;;1.30;0.30;;;;;;;-128.00;-1.00;-1.00;97863;297;1003051;-31
2023/03/26 09:47:02;;;;;;;0.40;0.30;;;;;;;-128.00;-1.00;-1.00;97847;297;1003015;-30
2023/03/26 09:49:42;;;;;;;0.30;0.20;;;;;;;-128.00;-1.00;-1.00;97785;297;1003332;-31
2023/03/26 09:52:32;;;;;;;1.60;0.30;;;;;;;-128.00;-1.00;-1.00;97400;297;1003062;-32
2023/03/26 09:55:19;;;;;;;0.40;0.30;;;;;;;-128.00;-1.00;-1.00;97858;297;1003913;-34
2023/03/26 09:58:03;;;;;;;0.70;0.20;;;;;;;-128.00;-1.00;-1.00;97592;297;1003407;-32
2023/03/26 10:00:43;;;;;;;0.20;0.20;;;;;;;-128.00;-1.00;-1.00;87076;297;7503582;-34
2023/03/26 10:03:28;;;;;;;0.70;0.50;;;;;;;-128.00;-1.00;-1.00;31525;297;7504242;-34
2023/03/26 10:06:02;;;;;;;1.50;0.30;;;;;;;-128.00;-1.00;-1.00;41240;299;7504245;-35
2023/03/26 10:08:37;;;;;;;0.50;0.20;;;;;;;-128.00;-1.00;-1.00;18565;350;7504123;-30
2023/03/26 10:11:20;;;;;;;0.40;0.20;;;;;;;-128.00;-1.00;-1.00;18447;299;7504378;-30
2023/03/26 10:13:53;;;;;;;1.00;0.50;;;;;;;-128.00;-1.00;-1.00;18449;297;7504646;-31
2023/03/26 10:16:41;;;;;;;0.80;0.30;;;;;;;-128.00;-1.00;-1.00;18433;298;7504763;-35
2023/03/26 10:19:14;;;;;;;2.30;0.50;;;;;;;-128.00;-1.00;-1.00;18463;297;7505029;-31
2023/03/26 10:21:46;;;;;;;1.00;0.20;;;;;;;-128.00;-1.00;-1.00;18457;297;7506481;-31
2023/03/26 10:24:32;;;;;;;1.40;0.40;;;;;;;-128.00;-1.00;-1.00;18456;299;7505625;-35
2023/03/26 10:27:07;;;;;;;0.80;0.10;;;;;;;-128.00;-1.00;-1.00;18471;297;7506008;-35
2023/03/26 10:29:47;;;;;;;1.20;0.50;;;;;;;-128.00;-1.00;-1.00;18461;342;7506005;-35
2023/03/26 10:32:32;;;;;;;1.40;0.90;;;;;;;-128.00;-1.00;-1.00;18462;297;7504505;-34
2023/03/26 10:35:22;;;;;;;0.80;0.60;;;;;;;-128.00;-1.00;-1.00;18461;297;7506415;-32
2023/03/26 10:38:11;;;;;;;6.10;0.60;;;;;;;-128.00;-1.00;-1.00;18454;350;7505130;-32
2023/03/26 10:40:54;;;;;;;1.90;0.60;;;;;;;-128.00;-1.00;-1.00;18475;297;7505001;-32
2023/03/26 10:43:27;;;;;;;;;;;;;;;-128.00;-1.00;-1.00;18436;350;7504290;-34
2023/03/26 10:46:02;;;;;;;0.20;0.10;;;;;;;-128.00;-1.00;-1.00;18479;297;7504942;-34
2023/03/26 10:48:49;;;;;;;3.80;0.30;;;;;;;-128.00;-1.00;-1.00;18450;298;7504489;-31
2023/03/26 10:51:33;;;;;;;0.20;0.00;;;;;;;-128.00;-1.00;-1.00;18441;298;7504298;-35
2023/03/26 10:54:20;;;;;;;0.10;0.10;;;;;;;-128.00;-1.00;-1.00;18467;297;7504351;-31
2023/03/26 10:56:48;;;;;;;0.20;0.20;;;;;;;-128.00;-1.00;-1.00;18449;306;7506415;-35
2023/03/26 10:59:15;;;;;;;0.40;0.40;;;;;;;-128.00;-1.00;-1.00;18439;299;7504143;-31
2023/03/26 11:01:45;;;;;;;0.50;0.40;;;;;;;-128.00;-1.00;-1.00;18445;297;7504659;-30
2023/03/26 11:44:26;;;;;;;0.70;0.50;;;;;;;-100.13;11.02;19633.04;98205;294;1547007;-33
2023/03/26 11:46:57;;;;;;;0.80;0.60;;;;;;;-128.00;-1.00;-1.00;97520;295;1003001;-30
2023/03/26 11:49:23;;;;;;;1.80;0.40;;;;;;;-128.00;-1.00;-1.00;97873;295;1002951;-29
2023/03/26 11:51:49;;;;;;;0.20;0.10;;;;;;;-128.00;-1.00;-1.00;97923;295;1003129;-34
2023/03/26 11:54:15;;;;;;;1.10;0.20;;;;;;;-128.00;-1.00;-1.00;97802;295;1002734;-32
2023/03/26 11:56:56;;;;;;;0.40;0.20;;;;;;;-128.00;-1.00;-1.00;97957;295;1002934;-30
2023/03/26 11:59:26;;;;;;;0.80;0.30;;;;;;;-128.00;-1.00;-1.00;97927;295;1003561;-30
2023/03/26 12:02:16;;;;;;;0.40;0.20;;;;;;;-128.00;-1.00;-1.00;97917;284;1003711;-30
2023/03/26 12:04:44;;;;;;;0.80;0.40;;;;;;;-128.00;-1.00;-1.00;98060;295;1003005;-30
2023/03/26 12:07:30;;;;;;;0.70;0.40;;;;;;;-128.00;-1.00;-1.00;98101;295;1003210;-34
2023/03/26 12:09:59;;;;;;;1.10;0.40;;;;;;;-128.00;-1.00;-1.00;97926;295;1002999;-34
2023/03/26 12:12:29;;;;;;;1.00;0.50;;;;;;;-128.00;-1.00;-1.00;97921;295;1003136;-32
2023/03/26 12:14:55;;;;;;;0.50;0.30;;;;;;;-128.00;-1.00;-1.00;97872;295;1004121;-30
2023/03/26 12:17:31;;;;;;;1.20;0.30;;;;;;;-128.00;-1.00;-1.00;97858;295;1003201;-29
2023/03/26 12:19:56;;;;;;;1.10;0.40;;;;;;;-128.00;-1.00;-1.00;97851;298;1003954;-30
2023/03/26 12:22:36;;;;;;;2.90;0.90;;;;;;;-128.00;-1.00;-1.00;97943;295;1003177;-34
2023/03/26 12:25:19;;;;;;;2.30;1.70;;;;;;;-128.00;-1.00;-1.00;98007;295;1002573;-34
2023/03/26 12:28:01;;;;;;;15.30;6.00;;;;;;;-128.00;-1.00;-1.00;97989;295;1003098;-35
2023/03/26 12:30:36;;;;;;;6.50;2.20;;;;;;;-128.00;-1.00;-1.00;98019;295;1003472;-30
2023/03/26 12:33:25;;;;;;;7.40;4.10;;;;;;;-128.00;-1.00;-1.00;97891;295;1003041;-31
2023/03/26 12:35:51;;;;;;;5.60;2.10;;;;;;;-128.00;-1.00;-1.00;98032;284;1003565;-34
2023/03/26 12:38:22;;;;;;;13.70;5.20;;;;;;;-128.00;-1.00;-1.00;98104;295;1003394;-31
2023/03/26 12:40:53;;;;;;;21.30;8.80;;;;;;;-128.00;-1.00;-1.00;98009;295;1003185;-29
2023/03/26 12:43:32;;;;;;;20.60;7.40;;;;;;;-128.00;-1.00;-1.00;97972;295;1004685;-31
2023/03/26 12:45:58;;;;;;;1.50;0.70;;;;;;;-128.00;-1.00;-1.00;97834;295;1002815;-30
2023/03/26 12:48:24;;;;;;;2.40;0.50;;;;;;;-128.00;-1.00;-1.00;97969;295;1004124;-32
2023/03/26 12:51:08;;;;;;;7.10;3.80;;;;;;;-128.00;-1.00;-1.00;97900;285;1005135;-33
2023/03/26 12:53:58;;;;;;;1.90;1.00;;;;;;;-128.00;-1.00;-1.00;97891;295;1003525;-31
2023/03/26 12:56:37;;;;;;;5.10;3.70;;;;;;;-128.00;-1.00;-1.00;97819;295;1004338;-30
2023/03/26 12:59:17;;;;;;;2.30;1.30;;;;;;;-128.00;-1.00;-1.00;97934;295;1003177;-34
2023/03/26 13:02:06;;;;;;;2.50;1.10;;;;;;;-128.00;-1.00;-1.00;97806;296;1003262;-29
2023/03/26 13:04:47;;;;;;;2.00;0.70;;;;;;;-128.00;-1.00;-1.00;97865;296;1003727;-33
2023/03/26 13:07:30;;;;;;;4.90;4.20;;;;;;;-128.00;-1.00;-1.00;97833;295;1002982;-36
2023/03/26 13:10:22;;;;;;;3.20;1.00;;;;;;;-128.00;-1.00;-1.00;97932;295;1002790;-31
2023/03/26 13:13:05;;;;;;;52.10;21.10;;;;;;;-128.00;-1.00;-1.00;97811;295;1004105;-29
2023/03/26 13:15:35;;;;;;;12.20;7.20;;;;;;;-128.00;-1.00;-1.00;97893;295;1004684;-33
2023/03/26 13:18:24;;;;;;;1.30;0.70;;;;;;;-128.00;-1.00;-1.00;97966;285;1003854;-32